createdAt,value
2022-07-26T00:00:13.260Z,100.00
2022-07-26T00:02:47.809Z,100.00
2022-07-26T00:05:18.650Z,100.00
2022-07-26T00:07:45.935Z,100.00
2022-07-26T00:10:13.176Z,100.00
2022-07-26T00:12:40.065Z,100.00
2022-07-26T00:15:10.718Z,100.00
2022-07-26T00:17:37.807Z,100.00
2022-07-26T00:20:05.627Z,100.00
2022-07-26T00:22:35.010Z,100.00
2022-07-26T00:25:07.407Z,100.00
2022-07-26T00:27:37.232Z,100.00
2022-07-26T00:30:09.419Z,100.00
2022-07-26T00:32:37.548Z,100.00
2022-07-26T00:35:04.985Z,100.00
2022-07-26T00:37:31.989Z,99.22
2022-07-26T00:39:58.661Z,98.58
2022-07-26T00:42:25.300Z,99.33
2022-07-26T00:44:52.063Z,98.03
2022-07-26T00:47:18.880Z,97.25
2022-07-26T00:49:45.568Z,97.59
2022-07-26T00:52:12.534Z,96.57
2022-07-26T00:54:43.860Z,95.93
2022-07-26T00:57:10.612Z,95.92
2022-07-26T00:59:37.864Z,97.78
2022-07-26T01:02:06.648Z,96.98
2022-07-26T01:04:34.310Z,97.22
2022-07-26T01:07:02.342Z,96.59
2022-07-26T01:09:41.622Z,93.96
2022-07-26T01:12:09.091Z,95.82
2022-07-26T01:14:35.831Z,95.38
2022-07-26T01:17:02.978Z,94.41
2022-07-26T01:19:29.854Z,96.48
2022-07-26T01:21:56.778Z,98.25
2022-07-26T01:24:23.504Z,98.51
2022-07-26T01:26:50.203Z,99.85
2022-07-26T01:29:17.131Z,99.58
2022-07-26T01:31:43.852Z,100.00
2022-07-26T01:35:09.817Z,100.00
2022-07-26T01:37:36.472Z,100.00
2022-07-26T01:40:03.943Z,100.00
2022-07-26T01:42:31.627Z,100.00
2022-07-26T01:44:58.333Z,100.00
2022-07-26T01:47:24.928Z,100.00
2022-07-26T01:49:51.577Z,100.00
2022-07-26T01:52:18.797Z,100.00
2022-07-26T01:54:45.521Z,100.00
2022-07-26T01:57:12.280Z,100.00
2022-07-26T01:59:38.878Z,100.00
2022-07-26T02:02:05.628Z,100.00
2022-07-26T02:04:50.744Z,100.00
2022-07-26T02:07:17.418Z,100.00
2022-07-26T02:09:44.086Z,100.00
2022-07-26T02:12:10.772Z,99.50
2022-07-26T02:14:37.537Z,98.88
2022-07-26T02:17:04.591Z,98.49
2022-07-26T02:19:31.655Z,97.70
2022-07-26T02:21:58.685Z,97.51
2022-07-26T02:24:28.702Z,98.01
2022-07-26T02:26:59.811Z,97.27
2022-07-26T02:29:27.488Z,97.67
2022-07-26T02:31:54.757Z,96.90
2022-07-26T02:34:21.680Z,97.53
2022-07-26T02:36:48.322Z,98.30
2022-07-26T02:39:15.275Z,97.78
2022-07-26T02:41:41.972Z,97.40
2022-07-26T02:44:09.672Z,97.50
2022-07-26T02:46:37.491Z,97.72
2022-07-26T02:49:04.659Z,98.07
2022-07-26T02:51:31.535Z,97.92
2022-07-26T02:53:58.237Z,98.57
2022-07-26T02:56:24.887Z,98.18
2022-07-26T02:58:51.528Z,97.55
2022-07-26T03:01:18.286Z,97.03
2022-07-26T03:03:50.131Z,97.45
2022-07-26T03:06:17.751Z,96.88
2022-07-26T03:08:44.366Z,97.31
2022-07-26T03:11:12.321Z,96.52
2022-07-26T03:13:39.308Z,97.61
2022-07-26T03:16:07.582Z,96.41
2022-07-26T03:18:34.320Z,96.03
2022-07-26T03:21:00.952Z,96.11
2022-07-26T03:23:27.593Z,95.65
2022-07-26T03:25:54.147Z,95.25
2022-07-26T03:28:20.973Z,94.54
2022-07-26T03:30:47.702Z,94.26
2022-07-26T03:33:14.373Z,93.96
2022-07-26T03:35:41.045Z,94.36
2022-07-26T03:38:08.478Z,94.86
2022-07-26T03:40:35.145Z,94.36
2022-07-26T03:43:01.804Z,94.50
2022-07-26T03:45:29.818Z,94.59
2022-07-26T03:47:56.516Z,95.08
2022-07-26T03:50:23.356Z,96.72
2022-07-26T03:52:50.026Z,97.61
2022-07-26T03:55:34.908Z,98.09
2022-07-26T03:58:01.771Z,98.37
2022-07-26T04:00:28.392Z,97.65
2022-07-26T04:02:55.219Z,97.44
2022-07-26T04:05:23.807Z,98.79
2022-07-26T04:07:53.726Z,98.07
2022-07-26T04:10:22.140Z,96.35
2022-07-26T04:12:49.800Z,95.93
2022-07-26T04:15:17.235Z,94.53
2022-07-26T04:17:44.044Z,95.24
2022-07-26T04:20:11.778Z,95.24
2022-07-26T04:22:41.379Z,94.51
2022-07-26T04:25:09.185Z,95.54
2022-07-26T04:27:37.227Z,94.99
2022-07-26T04:30:06.095Z,95.13
2022-07-26T04:32:34.187Z,95.44
2022-07-26T04:35:00.854Z,97.04
2022-07-26T04:37:27.444Z,96.80
2022-07-26T04:39:55.142Z,96.85
2022-07-26T04:42:21.861Z,96.83
2022-07-26T04:44:48.593Z,96.76
2022-07-26T04:47:15.192Z,95.96
2022-07-26T04:49:41.804Z,95.36
2022-07-26T04:52:08.408Z,94.71
2022-07-26T04:54:34.967Z,94.69
2022-07-26T04:57:01.532Z,94.33
2022-07-26T04:59:28.248Z,94.73
2022-07-26T05:01:59.361Z,94.73
2022-07-26T05:04:26.382Z,95.71
2022-07-26T05:06:53.252Z,94.63
2022-07-26T05:09:19.898Z,93.88
2022-07-26T05:11:46.492Z,93.82
2022-07-26T05:14:13.101Z,92.96
2022-07-26T05:16:44.346Z,92.51
2022-07-26T05:19:11.755Z,92.95
2022-07-26T05:21:38.780Z,93.00
2022-07-26T05:24:07.711Z,94.18
2022-07-26T05:26:34.731Z,95.08
2022-07-26T05:29:01.365Z,94.50
2022-07-26T05:31:28.082Z,94.65
2022-07-26T05:33:55.324Z,95.30
2022-07-26T05:36:22.053Z,95.19
2022-07-26T05:38:48.683Z,96.17
2022-07-26T05:41:15.395Z,97.19
2022-07-26T05:43:42.317Z,98.20
2022-07-26T05:46:10.290Z,98.98
2022-07-26T05:48:37.579Z,99.30
2022-07-26T05:51:04.399Z,98.16
2022-07-26T05:53:31.073Z,98.16
2022-07-26T05:55:57.697Z,97.71
2022-07-26T05:58:24.337Z,98.26
2022-07-26T06:00:51.084Z,97.26
2022-07-26T06:03:23.903Z,97.18
2022-07-26T06:05:52.899Z,96.39
2022-07-26T06:08:20.389Z,95.52
2022-07-26T06:10:48.677Z,94.54
2022-07-26T06:13:15.832Z,93.92
2022-07-26T06:15:43.087Z,96.13
2022-07-26T06:18:10.167Z,97.19
2022-07-26T06:20:41.001Z,97.43
2022-07-26T06:23:07.904Z,97.40
2022-07-26T06:25:35.128Z,97.35
2022-07-26T06:28:03.913Z,95.41
2022-07-26T06:30:30.971Z,96.20
2022-07-26T06:32:57.877Z,95.48
2022-07-26T06:35:24.730Z,94.60
2022-07-26T06:37:51.340Z,92.89
2022-07-26T06:40:17.959Z,93.37
2022-07-26T06:42:44.544Z,93.98
2022-07-26T06:45:11.389Z,94.69
2022-07-26T06:47:38.039Z,94.67
2022-07-26T06:50:05.488Z,95.93
2022-07-26T06:52:32.927Z,95.51
2022-07-26T06:55:00.348Z,94.25
2022-07-26T06:57:27.247Z,93.67
2022-07-26T06:59:53.932Z,94.35
2022-07-26T07:02:21.009Z,95.33
2022-07-26T07:04:47.630Z,96.09
2022-07-26T07:07:14.486Z,94.34
2022-07-26T07:09:41.394Z,96.02
2022-07-26T07:12:10.711Z,94.75
2022-07-26T07:14:38.597Z,93.42
2022-07-26T07:17:10.404Z,94.57
2022-07-26T07:19:39.872Z,93.68
2022-07-26T07:22:06.697Z,93.18
2022-07-26T07:24:33.309Z,92.61
2022-07-26T07:27:01.275Z,92.44
2022-07-26T07:29:28.015Z,93.45
2022-07-26T07:31:55.907Z,92.67
2022-07-26T07:34:23.921Z,92.29
2022-07-26T07:36:50.875Z,91.42
2022-07-26T07:39:18.177Z,90.06
2022-07-26T07:41:48.266Z,88.00
2022-07-26T07:44:15.155Z,87.63
2022-07-26T07:46:41.784Z,87.53
2022-07-26T07:49:09.038Z,87.89
2022-07-26T07:51:36.361Z,87.62
2022-07-26T07:54:05.795Z,85.55
2022-07-26T07:56:32.826Z,84.54
2022-07-26T07:58:59.705Z,83.87
2022-07-26T08:01:40.059Z,82.25
2022-07-26T08:04:07.421Z,83.51
2022-07-26T08:06:34.097Z,82.10
2022-07-26T08:09:00.727Z,81.44
2022-07-26T08:11:30.354Z,81.66
2022-07-26T08:13:57.047Z,81.70
2022-07-26T08:16:24.689Z,82.19
2022-07-26T08:18:57.926Z,81.38
2022-07-26T08:21:27.527Z,81.97
2022-07-26T08:23:56.121Z,82.08
2022-07-26T08:26:22.720Z,80.17
2022-07-26T08:29:00.076Z,79.50
2022-07-26T08:31:28.502Z,79.15
2022-07-26T08:33:55.667Z,78.38
2022-07-26T08:36:22.664Z,78.27
2022-07-26T08:38:49.612Z,77.89
2022-07-26T08:41:18.138Z,79.71
2022-07-26T08:43:52.008Z,78.67
2022-07-26T08:46:25.844Z,78.71
2022-07-26T08:48:53.694Z,78.20
2022-07-26T08:51:23.763Z,77.51
2022-07-26T08:53:54.409Z,76.30
2022-07-26T08:56:21.104Z,76.40
2022-07-26T08:58:47.697Z,76.81
2022-07-26T09:01:15.041Z,73.54
2022-07-26T09:03:43.470Z,73.70
2022-07-26T09:06:21.979Z,73.46
2022-07-26T09:08:51.902Z,74.49
2022-07-26T09:11:28.685Z,74.79
2022-07-26T09:14:01.268Z,74.27
2022-07-26T09:16:29.111Z,74.99
2022-07-26T09:19:06.639Z,73.25
2022-07-26T09:21:36.435Z,72.88
2022-07-26T09:24:03.511Z,72.78
2022-07-26T09:26:30.634Z,73.63
2022-07-26T09:29:12.707Z,73.31
2022-07-26T09:31:40.242Z,73.36
2022-07-26T09:34:07.844Z,73.73
2022-07-26T09:36:54.436Z,74.79
2022-07-26T09:39:27.765Z,75.14
2022-07-26T09:42:26.831Z,75.93
2022-07-26T09:44:56.334Z,74.29
2022-07-26T09:47:34.737Z,74.21
2022-07-26T09:50:17.210Z,75.73
2022-07-26T09:53:13.370Z,74.08
2022-07-26T09:56:06.037Z,74.36
2022-07-26T09:58:33.755Z,74.78
2022-07-26T10:01:02.450Z,73.54
2022-07-26T10:03:31.379Z,75.36
2022-07-26T10:05:59.325Z,76.62
2022-07-26T10:08:27.001Z,76.00
2022-07-26T10:11:02.009Z,75.97
2022-07-26T10:13:30.384Z,75.73
2022-07-26T10:15:57.193Z,76.53
2022-07-26T10:18:45.837Z,74.00
2022-07-26T10:21:27.064Z,75.71
2022-07-26T10:23:56.927Z,74.50
2022-07-26T10:26:37.692Z,74.54
2022-07-26T10:29:19.339Z,74.35
2022-07-26T10:31:48.148Z,72.19
2022-07-26T10:34:34.409Z,71.51
2022-07-26T10:37:04.502Z,71.16
2022-07-26T10:39:31.169Z,72.94
2022-07-26T10:42:08.969Z,73.02
2022-07-26T10:44:41.300Z,71.74
2022-07-26T10:47:18.809Z,72.23
2022-07-26T10:49:57.306Z,70.42
2022-07-26T10:52:32.508Z,71.46
2022-07-26T10:55:08.373Z,72.30
2022-07-26T10:57:42.692Z,72.29
2022-07-26T11:00:22.178Z,68.36
2022-07-26T11:02:53.127Z,68.98
2022-07-26T11:05:21.674Z,68.22
2022-07-26T11:08:09.153Z,67.53
2022-07-26T11:10:45.608Z,67.02
2022-07-26T11:13:23.782Z,67.39
2022-07-26T11:16:02.998Z,64.59
2022-07-26T11:18:35.410Z,66.95
2022-07-26T11:21:10.700Z,68.12
2022-07-26T11:23:39.025Z,66.12
2022-07-26T11:26:06.819Z,67.47
2022-07-26T11:29:06.146Z,68.76
2022-07-26T11:31:59.960Z,68.47
2022-07-26T11:34:33.302Z,68.12
2022-07-26T11:37:02.800Z,67.98
2022-07-26T11:39:35.139Z,67.89
2022-07-26T11:42:09.557Z,67.86
2022-07-26T11:44:36.673Z,67.85
2022-07-26T11:47:20.677Z,67.60
2022-07-26T11:50:00.958Z,67.93
2022-07-26T11:52:37.851Z,68.20
2022-07-26T11:55:04.986Z,69.01
2022-07-26T11:57:32.361Z,67.87
2022-07-26T12:00:00.817Z,70.41
2022-07-26T12:02:30.192Z,69.89
2022-07-26T12:05:19.921Z,70.71
2022-07-26T12:08:03.830Z,72.51
2022-07-26T12:10:30.770Z,75.32
2022-07-26T12:13:12.288Z,78.39
2022-07-26T12:15:49.680Z,79.10
2022-07-26T12:18:27.235Z,80.71
2022-07-26T12:21:09.158Z,83.15
2022-07-26T12:23:46.664Z,85.43
2022-07-26T12:26:40.267Z,85.21
2022-07-26T12:29:25.722Z,85.64
2022-07-26T12:32:35.290Z,87.77
2022-07-26T12:35:11.756Z,88.92
2022-07-26T12:37:51.385Z,87.42
2022-07-26T12:40:26.554Z,88.38
2022-07-26T12:43:02.662Z,88.73
2022-07-26T12:45:34.868Z,89.53
2022-07-26T12:48:03.700Z,89.64
2022-07-26T12:50:33.733Z,90.46
2022-07-26T12:53:05.208Z,89.35
2022-07-26T12:55:32.018Z,88.18
2022-07-26T12:57:59.445Z,87.20
2022-07-26T13:00:28.554Z,85.12
2022-07-26T13:02:57.242Z,83.05
2022-07-26T13:05:24.295Z,84.81
2022-07-26T13:07:55.463Z,84.75
2022-07-26T13:10:37.629Z,85.34
2022-07-26T13:13:05.013Z,83.23
2022-07-26T13:15:36.301Z,83.62
2022-07-26T13:18:08.231Z,81.28
2022-07-26T13:20:37.332Z,78.59
2022-07-26T13:23:04.137Z,79.06
2022-07-26T13:25:39.798Z,77.99
2022-07-26T13:28:08.253Z,75.28
2022-07-26T13:30:37.876Z,75.32
2022-07-26T13:33:05.151Z,75.11
2022-07-26T13:35:31.842Z,74.55
2022-07-26T13:37:58.522Z,74.07
2022-07-26T13:40:30.635Z,71.84
2022-07-26T13:42:58.148Z,70.92
2022-07-26T13:45:24.727Z,72.56
2022-07-26T13:47:56.126Z,71.14
2022-07-26T13:50:22.843Z,72.28
2022-07-26T13:52:49.796Z,74.44
2022-07-26T13:55:16.503Z,72.72
2022-07-26T13:57:53.290Z,73.30
2022-07-26T14:00:24.331Z,74.03
2022-07-26T14:02:51.098Z,76.95
2022-07-26T14:05:18.584Z,81.71
2022-07-26T14:07:45.263Z,82.40
2022-07-26T14:10:11.916Z,83.80
2022-07-26T14:12:38.706Z,81.92
2022-07-26T14:15:13.760Z,82.40
2022-07-26T14:17:41.989Z,81.97
2022-07-26T14:20:10.238Z,81.10
2022-07-26T14:22:36.946Z,82.05
2022-07-26T14:25:03.666Z,82.10
2022-07-26T14:27:30.319Z,81.68
2022-07-26T14:29:57.005Z,80.52
2022-07-26T14:32:23.760Z,79.87
2022-07-26T14:34:51.031Z,80.25
2022-07-26T14:37:44.360Z,79.16
2022-07-26T14:40:05.932Z,77.92
2022-07-26T14:42:33.373Z,77.03
2022-07-26T14:45:00.072Z,76.70
2022-07-26T14:47:26.745Z,76.14
2022-07-26T14:49:53.381Z,75.16
2022-07-26T14:52:20.108Z,75.98
2022-07-26T14:54:46.774Z,74.98
2022-07-26T14:57:13.594Z,74.43
2022-07-26T14:59:40.170Z,74.36
2022-07-26T15:02:06.867Z,73.34
2022-07-26T15:04:33.570Z,68.71
2022-07-26T15:07:00.282Z,70.83
2022-07-26T15:09:26.954Z,70.19
2022-07-26T15:11:53.662Z,70.41
2022-07-26T15:14:20.321Z,70.83
2022-07-26T15:16:46.979Z,71.44
2022-07-26T15:19:13.733Z,68.75
2022-07-26T15:21:40.370Z,68.71
2022-07-26T15:24:09.595Z,69.29
2022-07-26T15:26:36.454Z,68.14
2022-07-26T15:29:03.147Z,68.86
2022-07-26T15:31:37.409Z,68.79
2022-07-26T15:34:07.546Z,67.23
2022-07-26T15:36:34.540Z,67.29
2022-07-26T15:39:15.565Z,66.72
2022-07-26T15:41:43.404Z,66.64
2022-07-26T15:44:11.497Z,66.60
2022-07-26T15:46:39.194Z,67.41
2022-07-26T15:49:07.441Z,66.90
2022-07-26T15:51:34.448Z,67.48
2022-07-26T15:54:02.510Z,64.10
2022-07-26T15:56:29.133Z,66.41
2022-07-26T15:58:55.850Z,65.49
2022-07-26T16:01:22.772Z,65.81
2022-07-26T16:03:49.585Z,64.58
2022-07-26T16:06:16.220Z,66.28
2022-07-26T16:09:05.961Z,65.80
2022-07-26T16:11:30.425Z,67.25
2022-07-26T16:14:01.813Z,66.41
2022-07-26T16:16:30.456Z,67.09
2022-07-26T16:18:57.522Z,67.77
2022-07-26T16:21:24.462Z,66.92
2022-07-26T16:23:51.226Z,66.98
2022-07-26T16:26:18.372Z,66.66
2022-07-26T16:28:45.167Z,66.91
2022-07-26T16:31:11.916Z,66.96
2022-07-26T16:33:39.134Z,66.86
2022-07-26T16:36:13.413Z,64.73
2022-07-26T16:38:40.091Z,64.26
2022-07-26T16:41:06.907Z,65.13
2022-07-26T16:43:34.579Z,64.09
2022-07-26T16:46:01.319Z,64.79
2022-07-26T16:48:28.111Z,64.68
2022-07-26T16:50:54.912Z,65.85
2022-07-26T16:53:21.553Z,65.62
2022-07-26T16:55:51.328Z,66.54
2022-07-26T16:58:18.779Z,66.70
2022-07-26T17:00:45.995Z,66.25
2022-07-26T17:03:15.606Z,67.15
2022-07-26T17:05:43.682Z,67.31
2022-07-26T17:08:10.514Z,67.56
2022-07-26T17:10:37.197Z,67.13
2022-07-26T17:13:04.297Z,67.03
2022-07-26T17:15:30.910Z,66.58
2022-07-26T17:17:57.594Z,67.76
2022-07-26T17:20:24.454Z,66.75
2022-07-26T17:22:51.111Z,66.89
2022-07-26T17:25:17.725Z,67.57
2022-07-26T17:27:44.400Z,68.50
2022-07-26T17:30:11.739Z,68.00
2022-07-26T17:32:38.467Z,68.42
2022-07-26T17:35:06.600Z,68.07
2022-07-26T17:37:35.010Z,69.06
2022-07-26T17:40:03.540Z,68.73
2022-07-26T17:42:30.321Z,69.35
2022-07-26T17:44:56.985Z,69.40
2022-07-26T17:47:29.073Z,69.89
2022-07-26T17:50:08.998Z,70.09
2022-07-26T17:52:45.441Z,71.57
2022-07-26T17:55:12.082Z,71.55
2022-07-26T17:57:38.829Z,71.48
2022-07-26T18:00:07.492Z,71.42
2022-07-26T18:02:34.137Z,72.29
2022-07-26T18:05:01.421Z,71.57
2022-07-26T18:07:28.155Z,71.41
2022-07-26T18:09:54.769Z,71.03
2022-07-26T18:12:21.434Z,71.94
2022-07-26T18:14:48.079Z,72.24
2022-07-26T18:17:14.793Z,72.87
2022-07-26T18:19:41.758Z,73.10
2022-07-26T18:22:08.361Z,73.37
2022-07-26T18:24:35.046Z,73.34
2022-07-26T18:27:01.778Z,72.75
2022-07-26T18:29:28.485Z,73.62
2022-07-26T18:31:58.488Z,74.35
2022-07-26T18:34:25.104Z,74.38
2022-07-26T18:36:51.726Z,74.37
2022-07-26T18:39:18.455Z,74.52
2022-07-26T18:41:45.222Z,75.08
2022-07-26T18:44:12.877Z,74.14
2022-07-26T18:46:39.899Z,73.98
2022-07-26T18:49:07.134Z,73.71
2022-07-26T18:51:33.922Z,73.47
2022-07-26T18:54:00.786Z,74.37
2022-07-26T18:56:27.461Z,74.69
2022-07-26T18:58:54.265Z,75.23
2022-07-26T19:01:20.896Z,73.78
2022-07-26T19:03:47.595Z,73.91
2022-07-26T19:06:14.530Z,73.79
2022-07-26T19:08:41.238Z,73.94
2022-07-26T19:11:07.900Z,73.22
2022-07-26T19:13:34.506Z,73.91
2022-07-26T19:16:01.181Z,73.94
2022-07-26T19:18:27.961Z,73.74
2022-07-26T19:20:54.624Z,75.13
2022-07-26T19:23:21.289Z,75.83
2022-07-26T19:25:47.933Z,74.04
2022-07-26T19:28:15.749Z,74.77
2022-07-26T19:30:43.222Z,75.98
2022-07-26T19:33:10.199Z,75.53
2022-07-26T19:35:36.852Z,76.23
2022-07-26T19:38:03.590Z,75.58
2022-07-26T19:40:30.767Z,75.52
2022-07-26T19:42:57.401Z,76.93
2022-07-26T19:45:24.094Z,77.34
2022-07-26T19:47:50.684Z,75.80
2022-07-26T19:50:17.555Z,75.42
2022-07-26T19:52:44.204Z,76.64
2022-07-26T19:55:10.824Z,75.71
2022-07-26T19:57:37.557Z,75.91
2022-07-26T20:00:08.820Z,75.95
2022-07-26T20:02:35.677Z,75.42
2022-07-26T20:05:02.407Z,75.76
2022-07-26T20:07:29.117Z,76.27
2022-07-26T20:09:55.749Z,76.71
2022-07-26T20:12:22.418Z,76.95
2022-07-26T20:14:49.057Z,76.59
2022-07-26T20:17:16.281Z,77.40
2022-07-26T20:19:42.970Z,76.58
2022-07-26T20:22:09.815Z,77.85
2022-07-26T20:24:38.307Z,77.82
2022-07-26T20:27:08.123Z,78.94
2022-07-26T20:29:35.673Z,78.28
2022-07-26T20:32:02.836Z,78.67
2022-07-26T20:34:29.868Z,78.41
2022-07-26T20:36:56.542Z,77.94
2022-07-26T20:39:23.246Z,78.06
2022-07-26T20:41:49.911Z,78.27
2022-07-26T20:44:16.680Z,78.23
2022-07-26T20:46:45.521Z,78.21
2022-07-26T20:49:12.525Z,78.97
2022-07-26T20:51:39.424Z,79.55
2022-07-26T20:54:06.632Z,79.45
2022-07-26T20:56:33.836Z,79.31
2022-07-26T20:59:02.234Z,78.93
2022-07-26T21:01:30.156Z,78.72
2022-07-26T21:03:57.235Z,77.74
2022-07-26T21:06:24.185Z,77.54
2022-07-26T21:08:52.280Z,76.80
2022-07-26T21:11:19.334Z,76.74
2022-07-26T21:13:46.579Z,76.31
2022-07-26T21:16:15.514Z,76.68
2022-07-26T21:18:42.283Z,77.42
2022-07-26T21:21:08.958Z,76.99
2022-07-26T21:23:35.590Z,77.47
2022-07-26T21:26:02.325Z,77.38
2022-07-26T21:28:29.288Z,78.71
2022-07-26T21:30:56.126Z,78.42
2022-07-26T21:33:22.783Z,79.51
2022-07-26T21:35:49.444Z,79.94
2022-07-26T21:38:16.069Z,79.57
2022-07-26T21:40:42.671Z,79.49
2022-07-26T21:43:09.261Z,79.96
2022-07-26T21:45:35.991Z,81.09
2022-07-26T21:48:03.483Z,80.05
2022-07-26T21:50:30.357Z,81.68
2022-07-26T21:52:57.026Z,81.54
2022-07-26T21:55:23.688Z,81.36
2022-07-26T21:57:50.274Z,80.95
2022-07-26T22:00:17.686Z,81.18
2022-07-26T22:02:44.388Z,81.19
2022-07-26T22:05:29.605Z,81.29
2022-07-26T22:07:56.226Z,82.62
2022-07-26T22:10:23.380Z,82.91
2022-07-26T22:12:50.329Z,82.87
2022-07-26T22:15:17.264Z,82.85
2022-07-26T22:17:43.942Z,83.04
2022-07-26T22:20:11.666Z,82.69
2022-07-26T22:22:38.557Z,81.91
2022-07-26T22:25:06.128Z,82.01
2022-07-26T22:27:32.817Z,81.36
2022-07-26T22:29:59.429Z,81.12
2022-07-26T22:32:27.137Z,81.39
2022-07-26T22:34:53.731Z,81.83
2022-07-26T22:37:20.387Z,81.82
2022-07-26T22:39:47.084Z,82.55
2022-07-26T22:42:15.632Z,83.45
2022-07-26T22:44:42.631Z,83.27
2022-07-26T22:47:09.210Z,83.39
2022-07-26T22:49:35.930Z,83.35
2022-07-26T22:52:02.625Z,83.69
2022-07-26T22:54:29.412Z,83.90
2022-07-26T22:56:56.018Z,84.84
2022-07-26T22:59:25.232Z,84.95
2022-07-26T23:01:51.905Z,84.95
2022-07-26T23:04:18.648Z,85.27
2022-07-26T23:06:45.852Z,85.51
2022-07-26T23:09:14.044Z,85.99
2022-07-26T23:11:41.128Z,87.01
2022-07-26T23:14:07.758Z,86.96
2022-07-26T23:16:34.394Z,86.93
2022-07-26T23:19:01.078Z,87.41
2022-07-26T23:21:27.845Z,87.63
2022-07-26T23:23:54.994Z,88.30
2022-07-26T23:26:21.839Z,88.87
2022-07-26T23:28:48.614Z,87.93
2022-07-26T23:31:15.201Z,88.21
2022-07-26T23:33:53.045Z,88.00
2022-07-26T23:36:28.624Z,87.99
2022-07-26T23:38:57.128Z,87.81
2022-07-26T23:41:24.698Z,87.57
2022-07-26T23:43:52.035Z,87.92
2022-07-26T23:46:18.741Z,87.68
2022-07-26T23:48:45.624Z,88.36
2022-07-26T23:51:12.683Z,88.36
2022-07-26T23:53:39.340Z,88.67
2022-07-26T23:56:06.092Z,89.02
2022-07-26T23:58:32.713Z,88.11
